Aérodrome :
LOGIN :

S'inscrire | Disclaimer

   EN    FR    IT 

 










Légende :    VFR   VFR Marginal   IFR   IFR Intensif   IFR Très Intensif
Visi : 
Plafond : 
>= 8 km
>= 3000ft
5 à 8 km
1000 à 3000 ft
1500m à 5 km
500 à 1000 ft
800 à 1500m
200 à 500 ft
< 800m
< 200 ft
Symboles :   Orages  Brouillard  Fortes neiges  Fortes précipitations  Vent > 20 kt
SIGMETs :   Divers  Orages  Givrage  Turbulence  Onde Orograph.  Cendres Volcan.






- Altitude de l'aérodrome : 1302 ft
- Code IATA : GNB


LFLS - Grenoble / St. Geoirs

DERNIER METAR :
  • 212330Z AUTO 35011KT CAVOK 02/00 Q1017

METARs EXPIRÉS :
  • 212300Z AUTO 35015KT CAVOK 02/00 Q1017
  • 212230Z AUTO 35014KT CAVOK 02/00 Q1017
  • 212200Z AUTO 35014KT CAVOK 03/00 Q1017
  • 212130Z AUTO 36011KT CAVOK 03/M00 Q1018
  • 212100Z AUTO 36012KT 320V030 CAVOK 03/M00 Q1017
  • 212030Z AUTO 36010KT 330V030 CAVOK 04/M01 Q1018
  • 212000Z AUTO 35007KT 310V060 9999 FEW056 04/M00 Q1018
  • 211930Z AUTO 35013KT 330V030 9999 FEW060 04/00 Q1017

TAF TAF LFLS
Valide du 21 à 15h jusqu'au 22 à 15h UTC


211400Z 2115/2215 36011KT 9999 SCT030
TEMPO 2115/2118 34015G25KT -SHRA SCT050TCU
PROB40
TEMPO 2115/2118 2000 SHGS SCT040CB
BECMG 2121/2124 BKN009
BECMG 2207/2209 BKN020
ATIS : +33 4 76 65 55 89



MET'MAP, la Météo Aéronautique d'un coup d'oeil ! - Copyright ORBIFLY Décembre 2007 - Disclaimer

ORBIFLY MET'MAP TEAM :

Programmation & Développement : Alexandra Zaïnal
Sur une idée originale de : Baudouin d'Aumeries
Soutien technique & logistique : Manuel Goepfert
Assistance : Marc-Olivier Méhu




SOURCES & CREDITS :

   NOAA